createdAt,value
2022-08-17T00:02:26.793Z,4.75
2022-08-17T00:08:43.986Z,8.17
2022-08-17T00:12:35.510Z,4.30
2022-08-17T00:15:15.163Z,4.22
2022-08-17T00:19:06.994Z,4.50
2022-08-17T00:22:29.462Z,5.87
2022-08-17T00:25:15.005Z,4.20
2022-08-17T00:28:18.174Z,4.90
2022-08-17T00:31:24.792Z,4.18
2022-08-17T00:34:28.847Z,6.32
2022-08-17T00:37:35.174Z,5.62
2022-08-17T00:40:45.517Z,4.65
2022-08-17T00:43:52.108Z,5.65
2022-08-17T00:46:56.260Z,5.37
2022-08-17T00:49:59.286Z,4.55
2022-08-17T00:53:04.690Z,4.55
2022-08-17T00:56:12.959Z,5.45
2022-08-17T00:59:19.287Z,4.45
2022-08-17T01:02:24.101Z,4.37
2022-08-17T01:05:31.643Z,4.72
2022-08-17T01:08:36.472Z,5.90
2022-08-17T01:11:40.787Z,5.18
2022-08-17T01:17:48.154Z,4.93
2022-08-17T01:20:53.989Z,4.32
2022-08-17T01:23:57.233Z,6.15
2022-08-17T01:27:00.612Z,6.00
2022-08-17T01:30:57.329Z,9.30
2022-08-17T01:33:31.015Z,4.53
2022-08-17T01:36:33.783Z,7.32
2022-08-17T01:39:42.235Z,5.37
2022-08-17T01:42:50.644Z,5.45
2022-08-17T01:46:02.507Z,5.10
2022-08-17T01:49:08.766Z,7.25
2022-08-17T01:52:12.550Z,4.85
2022-08-17T01:55:18.075Z,5.80
2022-08-17T01:58:21.505Z,5.47
2022-08-17T02:01:30.840Z,8.30
2022-08-17T02:04:35.089Z,5.37
2022-08-17T02:07:59.442Z,8.97
2022-08-17T02:11:12.172Z,5.90
2022-08-17T02:14:15.202Z,5.45
2022-08-17T02:17:18.250Z,5.95
2022-08-17T02:20:41.764Z,5.60
2022-08-17T02:23:47.566Z,6.50
2022-08-17T02:26:50.513Z,6.35
2022-08-17T02:29:53.731Z,6.22
2022-08-17T02:32:56.524Z,6.37
2022-08-17T02:35:59.910Z,6.95
2022-08-17T02:39:07.077Z,5.28
2022-08-17T02:42:10.211Z,9.77
2022-08-17T02:45:19.360Z,5.18
2022-08-17T02:48:30.423Z,6.28
2022-08-17T02:51:35.392Z,5.05
2022-08-17T02:54:42.291Z,5.40
2022-08-17T02:57:45.595Z,5.35
2022-08-17T03:00:49.066Z,5.57
2022-08-17T03:03:51.847Z,7.82
2022-08-17T03:06:54.904Z,8.50
2022-08-17T03:09:57.691Z,7.47
2022-08-17T03:13:01.410Z,6.18
2022-08-17T03:16:04.330Z,5.10
2022-08-17T03:19:07.506Z,5.93
2022-08-17T03:22:36.518Z,5.25
2022-08-17T03:25:46.090Z,6.35
2022-08-17T03:28:49.059Z,6.70
2022-08-17T03:31:52.506Z,5.22
2022-08-17T03:34:59.831Z,4.95
2022-08-17T03:38:04.631Z,6.68
2022-08-17T03:41:09.037Z,5.05
2022-08-17T03:44:12.102Z,5.50
2022-08-17T03:47:33.853Z,5.07
2022-08-17T03:50:55.849Z,5.30
2022-08-17T03:54:18.908Z,6.22
2022-08-17T03:57:22.569Z,8.18
2022-08-17T04:00:25.393Z,6.03
2022-08-17T04:03:28.868Z,5.72
2022-08-17T04:06:31.590Z,6.22
2022-08-17T04:09:36.665Z,4.85
2022-08-17T04:15:49.324Z,7.95
2022-08-17T04:18:52.649Z,6.20
2022-08-17T04:21:58.037Z,5.75
2022-08-17T04:25:18.117Z,5.47
2022-08-17T04:28:21.189Z,7.35
2022-08-17T04:31:24.089Z,6.65
2022-08-17T04:34:29.142Z,7.03
2022-08-17T04:40:53.331Z,5.60
2022-08-17T04:43:58.565Z,5.53
2022-08-17T04:47:01.727Z,5.93
2022-08-17T04:50:04.958Z,5.55
2022-08-17T04:53:08.012Z,7.20
2022-08-17T04:56:16.603Z,9.57
2022-08-17T04:59:21.698Z,5.87
2022-08-17T05:02:24.523Z,8.25
2022-08-17T05:05:34.070Z,7.18
2022-08-17T05:08:40.015Z,6.10
2022-08-17T05:11:44.954Z,6.03
2022-08-17T05:14:48.012Z,5.85
2022-08-17T05:17:51.167Z,7.72
2022-08-17T05:20:54.706Z,11.02
2022-08-17T05:23:58.770Z,7.47
2022-08-17T05:30:10.242Z,9.18
2022-08-17T05:33:26.469Z,7.10
2022-08-17T05:36:43.660Z,6.62
2022-08-17T05:39:47.335Z,8.63
2022-08-17T05:42:50.896Z,9.05
2022-08-17T05:46:02.100Z,6.62
2022-08-17T05:49:12.039Z,6.62
2022-08-17T05:52:48.545Z,9.60
2022-08-17T05:56:29.722Z,11.98
2022-08-17T05:59:33.047Z,10.50
2022-08-17T06:02:48.533Z,10.02
2022-08-17T06:06:04.188Z,11.55
2022-08-17T06:09:33.662Z,7.78
2022-08-17T06:13:19.766Z,9.45
2022-08-17T06:16:34.167Z,10.27
2022-08-17T06:19:50.020Z,11.43
2022-08-17T06:22:56.669Z,9.63
2022-08-17T06:26:03.955Z,8.18
2022-08-17T06:29:18.894Z,11.27
2022-08-17T06:32:23.065Z,7.10
2022-08-17T06:35:34.078Z,12.25
2022-08-17T06:39:17.247Z,12.43
2022-08-17T06:42:55.078Z,8.65
2022-08-17T06:46:20.018Z,11.38
2022-08-17T06:49:27.111Z,7.78
2022-08-17T06:52:45.268Z,10.48
2022-08-17T06:56:07.622Z,8.48
2022-08-17T06:59:17.669Z,7.68
2022-08-17T07:02:29.327Z,8.07
2022-08-17T07:05:58.463Z,7.80
2022-08-17T07:09:07.268Z,11.15
2022-08-17T07:12:22.230Z,7.93
2022-08-17T07:18:37.531Z,9.07
2022-08-17T07:22:00.193Z,8.90
2022-08-17T07:25:08.150Z,10.18
2022-08-17T07:28:12.132Z,8.68
2022-08-17T07:31:17.718Z,11.32
2022-08-17T07:34:20.731Z,7.15
2022-08-17T07:37:23.818Z,7.62
2022-08-17T07:40:33.768Z,6.95
2022-08-17T07:43:39.983Z,9.90
2022-08-17T07:47:10.535Z,9.30
2022-08-17T07:50:40.180Z,7.40
2022-08-17T07:53:43.004Z,9.70
2022-08-17T07:57:01.613Z,8.82
2022-08-17T08:00:17.002Z,9.82
2022-08-17T08:03:32.056Z,8.88
2022-08-17T08:06:47.652Z,8.90
2022-08-17T08:10:28.496Z,7.72
2022-08-17T08:13:32.502Z,6.45
2022-08-17T08:16:36.891Z,6.32
2022-08-17T08:19:40.171Z,6.30
2022-08-17T08:22:49.336Z,8.85
2022-08-17T08:26:18.884Z,9.63
2022-08-17T08:29:34.003Z,10.32
2022-08-17T08:32:39.741Z,7.07
2022-08-17T08:35:55.327Z,10.30
2022-08-17T08:39:04.596Z,7.00
2022-08-17T08:42:10.597Z,6.80
2022-08-17T08:45:42.845Z,6.93
2022-08-17T08:48:58.135Z,7.63
2022-08-17T08:52:04.152Z,7.50
2022-08-17T08:55:07.902Z,8.63
2022-08-17T08:58:41.790Z,7.00
2022-08-17T09:05:15.987Z,8.50
2022-08-17T09:08:47.359Z,9.63
2022-08-17T09:12:04.052Z,9.35
2022-08-17T09:15:21.628Z,9.95
2022-08-17T09:19:00.954Z,6.35
2022-08-17T09:21:56.062Z,9.60
2022-08-17T09:25:21.884Z,6.47
2022-08-17T09:28:34.809Z,8.10
2022-08-17T09:31:49.395Z,6.75
2022-08-17T09:34:56.788Z,6.55
2022-08-17T09:38:03.854Z,6.47
2022-08-17T09:41:22.684Z,6.68
2022-08-17T09:44:38.677Z,6.72
2022-08-17T09:47:48.642Z,5.78
2022-08-17T09:51:19.491Z,8.73
2022-08-17T09:54:42.775Z,6.90
2022-08-17T09:58:09.430Z,7.32
2022-08-17T10:01:34.987Z,7.43
2022-08-17T10:04:54.203Z,6.10
2022-08-17T10:08:24.489Z,6.72
2022-08-17T10:12:02.757Z,7.45
2022-08-17T10:15:24.533Z,7.62
2022-08-17T10:27:23.061Z,5.18
2022-08-17T10:51:09.120Z,3.97
2022-08-17T11:23:40.219Z,3.28
2022-08-17T11:43:27.493Z,4.28
2022-08-17T13:09:07.502Z,3.83
2022-08-17T14:06:52.979Z,3.55
2022-08-17T14:10:20.663Z,3.35
2022-08-17T14:55:42.625Z,2.80
2022-08-17T14:59:22.675Z,3.33
2022-08-17T15:02:32.484Z,2.70
2022-08-17T15:05:57.425Z,2.95
2022-08-17T15:37:01.137Z,2.75
2022-08-17T15:51:38.539Z,2.67
2022-08-17T16:03:45.011Z,3.45
2022-08-17T16:07:26.706Z,3.15
2022-08-17T16:15:09.548Z,4.30
2022-08-17T16:26:37.023Z,2.70
2022-08-17T22:26:05.424Z,4.15
2022-08-17T22:29:44.598Z,6.62
2022-08-17T22:32:48.563Z,6.45
2022-08-17T22:36:22.027Z,3.80
2022-08-17T22:39:26.303Z,3.45
2022-08-17T22:42:29.418Z,3.40
2022-08-17T22:45:33.663Z,3.72
2022-08-17T22:48:37.206Z,4.05
2022-08-17T22:51:40.351Z,6.32
2022-08-17T22:55:12.830Z,4.80
2022-08-17T22:58:38.100Z,4.55
2022-08-17T23:01:42.993Z,5.82
2022-08-17T23:05:16.906Z,4.70
2022-08-17T23:08:21.484Z,4.35
2022-08-17T23:11:36.821Z,3.35
2022-08-17T23:14:51.528Z,5.28
2022-08-17T23:17:54.602Z,5.07
2022-08-17T23:20:57.770Z,4.30
2022-08-17T23:24:01.561Z,5.07
2022-08-17T23:27:07.696Z,4.40
2022-08-17T23:30:12.142Z,4.28
2022-08-17T23:33:30.050Z,5.95
2022-08-17T23:36:33.592Z,3.60
2022-08-17T23:39:37.622Z,3.80
2022-08-17T23:42:46.247Z,3.65
2022-08-17T23:45:50.422Z,5.30
2022-08-17T23:48:54.231Z,3.37
2022-08-17T23:52:00.446Z,4.45
2022-08-17T23:55:04.277Z,4.05
2022-08-17T23:58:07.760Z,9.00
